sensor_id;sensor_type;location;lat;lon;timestamp;temperature;humidity
9984;DHT22;16737;50.932;6.780;2023-03-23T00:01:15;15.90;91.00
9984;DHT22;16737;50.932;6.780;2023-03-23T00:03:45;15.90;91.10
9984;DHT22;16737;50.932;6.780;2023-03-23T00:06:14;15.90;91.20
9984;DHT22;16737;50.932;6.780;2023-03-23T00:08:44;15.90;91.10
9984;DHT22;16737;50.932;6.780;2023-03-23T00:11:13;15.90;91.20
9984;DHT22;16737;50.932;6.780;2023-03-23T00:13:42;15.90;91.20
9984;DHT22;16737;50.932;6.780;2023-03-23T00:16:11;15.90;91.20
9984;DHT22;16737;50.932;6.780;2023-03-23T00:18:44;15.90;91.20
9984;DHT22;16737;50.932;6.780;2023-03-23T00:21:12;15.90;91.20
9984;DHT22;16737;50.932;6.780;2023-03-23T00:23:40;15.90;91.20
9984;DHT22;16737;50.932;6.780;2023-03-23T00:26:11;15.90;91.20
9984;DHT22;16737;50.932;6.780;2023-03-23T00:28:39;15.90;91.30
9984;DHT22;16737;50.932;6.780;2023-03-23T00:31:10;15.90;91.30
9984;DHT22;16737;50.932;6.780;2023-03-23T00:33:38;15.90;91.30
9984;DHT22;16737;50.932;6.780;2023-03-23T00:36:07;15.90;91.30
9984;DHT22;16737;50.932;6.780;2023-03-23T00:38:36;15.90;91.30
9984;DHT22;16737;50.932;6.780;2023-03-23T00:41:04;15.80;91.30
9984;DHT22;16737;50.932;6.780;2023-03-23T00:43:32;15.80;91.30
9984;DHT22;16737;50.932;6.780;2023-03-23T00:46:02;15.80;91.30
9984;DHT22;16737;50.932;6.780;2023-03-23T00:48:36;15.80;91.30
9984;DHT22;16737;50.932;6.780;2023-03-23T00:51:06;15.80;91.30
9984;DHT22;16737;50.932;6.780;2023-03-23T00:53:37;15.90;91.40
9984;DHT22;16737;50.932;6.780;2023-03-23T00:56:08;15.90;91.40
9984;DHT22;16737;50.932;6.780;2023-03-23T00:58:36;15.90;91.50
9984;DHT22;16737;50.932;6.780;2023-03-23T01:01:03;15.80;91.30
9984;DHT22;16737;50.932;6.780;2023-03-23T01:03:35;15.80;91.40
9984;DHT22;16737;50.932;6.780;2023-03-23T01:06:07;15.80;91.40
9984;DHT22;16737;50.932;6.780;2023-03-23T01:08:39;15.80;91.50
9984;DHT22;16737;50.932;6.780;2023-03-23T01:11:12;15.80;91.40
9984;DHT22;16737;50.932;6.780;2023-03-23T01:13:41;15.80;91.50
9984;DHT22;16737;50.932;6.780;2023-03-23T01:16:10;15.80;91.40
9984;DHT22;16737;50.932;6.780;2023-03-23T01:18:42;15.80;91.40
9984;DHT22;16737;50.932;6.780;2023-03-23T01:21:11;15.80;91.50
9984;DHT22;16737;50.932;6.780;2023-03-23T01:23:39;15.80;91.50
9984;DHT22;16737;50.932;6.780;2023-03-23T01:26:09;15.80;91.40
9984;DHT22;16737;50.932;6.780;2023-03-23T01:28:37;15.80;91.50
9984;DHT22;16737;50.932;6.780;2023-03-23T01:31:07;15.80;91.50
9984;DHT22;16737;50.932;6.780;2023-03-23T01:33:39;15.80;91.50
9984;DHT22;16737;50.932;6.780;2023-03-23T01:36:11;15.80;91.50
9984;DHT22;16737;50.932;6.780;2023-03-23T01:38:43;15.80;91.50
9984;DHT22;16737;50.932;6.780;2023-03-23T01:41:11;15.80;91.70
9984;DHT22;16737;50.932;6.780;2023-03-23T01:43:57;15.80;91.60
9984;DHT22;16737;50.932;6.780;2023-03-23T01:46:27;15.80;92.00
9984;DHT22;16737;50.932;6.780;2023-03-23T01:48:57;15.80;91.70
9984;DHT22;16737;50.932;6.780;2023-03-23T01:51:27;15.80;91.90
9984;DHT22;16737;50.932;6.780;2023-03-23T01:53:58;15.80;91.90
9984;DHT22;16737;50.932;6.780;2023-03-23T01:56:32;15.80;92.00
9984;DHT22;16737;50.932;6.780;2023-03-23T01:59:07;15.70;92.00
9984;DHT22;16737;50.932;6.780;2023-03-23T02:01:36;15.70;92.10
9984;DHT22;16737;50.932;6.780;2023-03-23T02:04:10;15.60;91.90
9984;DHT22;16737;50.932;6.780;2023-03-23T02:06:38;15.60;92.00
9984;DHT22;16737;50.932;6.780;2023-03-23T02:09:05;15.60;92.10
9984;DHT22;16737;50.932;6.780;2023-03-23T02:11:34;15.60;92.10
9984;DHT22;16737;50.932;6.780;2023-03-23T02:14:02;15.50;92.20
9984;DHT22;16737;50.932;6.780;2023-03-23T02:16:37;15.50;92.20
9984;DHT22;16737;50.932;6.780;2023-03-23T02:19:33;15.40;92.40
9984;DHT22;16737;50.932;6.780;2023-03-23T02:22:19;15.40;92.60
9984;DHT22;16737;50.932;6.780;2023-03-23T02:25:13;15.40;92.40
9984;DHT22;16737;50.932;6.780;2023-03-23T02:31:36;15.30;92.70
9984;DHT22;16737;50.932;6.780;2023-03-23T02:34:27;15.30;92.80
9984;DHT22;16737;50.932;6.780;2023-03-23T02:36:59;15.20;92.80
9984;DHT22;16737;50.932;6.780;2023-03-23T02:39:33;15.20;92.50
9984;DHT22;16737;50.932;6.780;2023-03-23T02:42:05;15.20;92.50
9984;DHT22;16737;50.932;6.780;2023-03-23T02:44:36;15.20;92.60
9984;DHT22;16737;50.932;6.780;2023-03-23T02:47:09;15.10;92.60
9984;DHT22;16737;50.932;6.780;2023-03-23T02:49:42;15.10;92.50
9984;DHT22;16737;50.932;6.780;2023-03-23T02:52:16;15.10;92.50
9984;DHT22;16737;50.932;6.780;2023-03-23T02:54:48;15.10;92.60
9984;DHT22;16737;50.932;6.780;2023-03-23T02:57:16;15.10;92.50
9984;DHT22;16737;50.932;6.780;2023-03-23T02:59:44;15.10;92.50
9984;DHT22;16737;50.932;6.780;2023-03-23T03:02:13;15.10;92.50
9984;DHT22;16737;50.932;6.780;2023-03-23T03:04:48;15.10;92.50
9984;DHT22;16737;50.932;6.780;2023-03-23T03:07:32;15.10;92.60
9984;DHT22;16737;50.932;6.780;2023-03-23T03:10:19;15.10;92.70
9984;DHT22;16737;50.932;6.780;2023-03-23T03:12:56;15.20;92.60
9984;DHT22;16737;50.932;6.780;2023-03-23T03:15:33;15.20;92.60
9984;DHT22;16737;50.932;6.780;2023-03-23T03:18:09;15.20;92.60
9984;DHT22;16737;50.932;6.780;2023-03-23T03:20:45;15.20;92.70
9984;DHT22;16737;50.932;6.780;2023-03-23T03:23:15;15.20;92.60
9984;DHT22;16737;50.932;6.780;2023-03-23T03:25:46;15.20;92.60
9984;DHT22;16737;50.932;6.780;2023-03-23T03:28:16;15.20;92.60
9984;DHT22;16737;50.932;6.780;2023-03-23T03:30:48;15.20;92.60
9984;DHT22;16737;50.932;6.780;2023-03-23T03:33:19;15.10;92.60
9984;DHT22;16737;50.932;6.780;2023-03-23T03:35:53;15.10;92.60
9984;DHT22;16737;50.932;6.780;2023-03-23T03:38:22;15.10;92.70
9984;DHT22;16737;50.932;6.780;2023-03-23T03:40:49;15.10;92.60
9984;DHT22;16737;50.932;6.780;2023-03-23T03:43:17;15.10;92.60
9984;DHT22;16737;50.932;6.780;2023-03-23T03:45:44;15.10;92.60
9984;DHT22;16737;50.932;6.780;2023-03-23T03:48:11;15.10;92.70
9984;DHT22;16737;50.932;6.780;2023-03-23T03:50:39;15.10;92.70
9984;DHT22;16737;50.932;6.780;2023-03-23T03:53:07;15.10;92.70
9984;DHT22;16737;50.932;6.780;2023-03-23T03:55:35;15.10;92.80
9984;DHT22;16737;50.932;6.780;2023-03-23T03:58:04;15.10;92.70
9984;DHT22;16737;50.932;6.780;2023-03-23T04:00:33;15.10;92.80
9984;DHT22;16737;50.932;6.780;2023-03-23T04:03:00;15.10;92.80
9984;DHT22;16737;50.932;6.780;2023-03-23T04:05:27;15.10;92.80
9984;DHT22;16737;50.932;6.780;2023-03-23T04:07:55;15.10;92.80
9984;DHT22;16737;50.932;6.780;2023-03-23T04:10:29;15.00;92.80
9984;DHT22;16737;50.932;6.780;2023-03-23T04:12:57;15.10;93.00
9984;DHT22;16737;50.932;6.780;2023-03-23T04:15:24;15.10;92.90
9984;DHT22;16737;50.932;6.780;2023-03-23T04:17:52;15.10;92.90
9984;DHT22;16737;50.932;6.780;2023-03-23T04:20:19;15.10;92.90
9984;DHT22;16737;50.932;6.780;2023-03-23T04:22:47;15.10;92.90
9984;DHT22;16737;50.932;6.780;2023-03-23T04:25:16;15.10;92.90
9984;DHT22;16737;50.932;6.780;2023-03-23T04:27:48;15.10;93.00
9984;DHT22;16737;50.932;6.780;2023-03-23T04:30:19;15.10;92.90
9984;DHT22;16737;50.932;6.780;2023-03-23T04:32:47;15.10;92.90
9984;DHT22;16737;50.932;6.780;2023-03-23T04:35:19;15.10;92.90
9984;DHT22;16737;50.932;6.780;2023-03-23T04:37:47;15.10;93.00
9984;DHT22;16737;50.932;6.780;2023-03-23T04:40:16;15.10;93.00
9984;DHT22;16737;50.932;6.780;2023-03-23T04:42:44;15.10;93.00
9984;DHT22;16737;50.932;6.780;2023-03-23T04:45:16;15.10;93.00
9984;DHT22;16737;50.932;6.780;2023-03-23T04:47:47;15.10;93.10
9984;DHT22;16737;50.932;6.780;2023-03-23T04:50:20;15.10;93.00
9984;DHT22;16737;50.932;6.780;2023-03-23T04:52:50;15.10;93.00
9984;DHT22;16737;50.932;6.780;2023-03-23T04:55:20;15.10;93.00
9984;DHT22;16737;50.932;6.780;2023-03-23T04:57:47;15.10;93.00
9984;DHT22;16737;50.932;6.780;2023-03-23T05:00:16;15.10;93.00
9984;DHT22;16737;50.932;6.780;2023-03-23T05:02:46;15.10;93.00
9984;DHT22;16737;50.932;6.780;2023-03-23T05:05:17;15.10;93.00
9984;DHT22;16737;50.932;6.780;2023-03-23T05:07:46;15.10;93.00
9984;DHT22;16737;50.932;6.780;2023-03-23T05:10:14;15.20;93.00
9984;DHT22;16737;50.932;6.780;2023-03-23T05:12:42;15.20;93.00
9984;DHT22;16737;50.932;6.780;2023-03-23T05:15:15;15.10;93.00
9984;DHT22;16737;50.932;6.780;2023-03-23T05:17:42;15.20;93.00
9984;DHT22;16737;50.932;6.780;2023-03-23T05:20:12;15.20;93.00
9984;DHT22;16737;50.932;6.780;2023-03-23T05:22:43;15.20;93.00
9984;DHT22;16737;50.932;6.780;2023-03-23T05:25:13;15.20;92.90
9984;DHT22;16737;50.932;6.780;2023-03-23T05:27:40;15.20;92.90
9984;DHT22;16737;50.932;6.780;2023-03-23T05:30:09;15.20;92.90
9984;DHT22;16737;50.932;6.780;2023-03-23T05:32:38;15.10;92.90
9984;DHT22;16737;50.932;6.780;2023-03-23T05:35:06;15.20;92.90
9984;DHT22;16737;50.932;6.780;2023-03-23T05:37:33;15.20;92.90
9984;DHT22;16737;50.932;6.780;2023-03-23T05:40:01;15.20;93.20
9984;DHT22;16737;50.932;6.780;2023-03-23T05:42:32;15.20;92.80
9984;DHT22;16737;50.932;6.780;2023-03-23T05:44:59;15.20;92.80
9984;DHT22;16737;50.932;6.780;2023-03-23T05:47:27;15.20;92.80
9984;DHT22;16737;50.932;6.780;2023-03-23T05:49:55;15.20;92.80
9984;DHT22;16737;50.932;6.780;2023-03-23T05:52:23;15.20;93.10
9984;DHT22;16737;50.932;6.780;2023-03-23T05:54:50;15.20;92.70
9984;DHT22;16737;50.932;6.780;2023-03-23T05:57:17;15.20;92.70
9984;DHT22;16737;50.932;6.780;2023-03-23T05:59:47;15.30;92.70
9984;DHT22;16737;50.932;6.780;2023-03-23T06:02:14;15.20;92.60
9984;DHT22;16737;50.932;6.780;2023-03-23T06:04:42;15.20;92.60
9984;DHT22;16737;50.932;6.780;2023-03-23T06:07:11;15.20;92.60
9984;DHT22;16737;50.932;6.780;2023-03-23T06:09:40;15.30;92.50
9984;DHT22;16737;50.932;6.780;2023-03-23T06:12:09;15.30;92.50
9984;DHT22;16737;50.932;6.780;2023-03-23T06:14:36;15.20;92.40
9984;DHT22;16737;50.932;6.780;2023-03-23T06:17:04;15.20;92.40
9984;DHT22;16737;50.932;6.780;2023-03-23T06:19:33;15.20;92.30
9984;DHT22;16737;50.932;6.780;2023-03-23T06:22:00;15.20;92.30
9984;DHT22;16737;50.932;6.780;2023-03-23T06:24:29;15.30;92.30
9984;DHT22;16737;50.932;6.780;2023-03-23T06:26:56;15.30;92.30
9984;DHT22;16737;50.932;6.780;2023-03-23T06:29:24;15.30;92.30
9984;DHT22;16737;50.932;6.780;2023-03-23T06:31:54;15.30;92.30
9984;DHT22;16737;50.932;6.780;2023-03-23T06:34:23;15.30;92.20
9984;DHT22;16737;50.932;6.780;2023-03-23T06:36:50;15.30;92.20
9984;DHT22;16737;50.932;6.780;2023-03-23T06:39:17;15.30;92.20
9984;DHT22;16737;50.932;6.780;2023-03-23T06:41:46;15.40;92.30
9984;DHT22;16737;50.932;6.780;2023-03-23T06:44:13;15.40;92.20
9984;DHT22;16737;50.932;6.780;2023-03-23T06:46:41;15.40;92.30
9984;DHT22;16737;50.932;6.780;2023-03-23T06:49:08;15.40;92.30
9984;DHT22;16737;50.932;6.780;2023-03-23T06:51:36;15.40;92.20
9984;DHT22;16737;50.932;6.780;2023-03-23T06:54:03;15.50;92.20
9984;DHT22;16737;50.932;6.780;2023-03-23T06:56:31;15.50;92.20
9984;DHT22;16737;50.932;6.780;2023-03-23T06:59:00;15.50;92.20
9984;DHT22;16737;50.932;6.780;2023-03-23T07:01:27;15.50;92.20
9984;DHT22;16737;50.932;6.780;2023-03-23T07:03:54;15.50;92.20
9984;DHT22;16737;50.932;6.780;2023-03-23T07:06:22;15.50;92.20
9984;DHT22;16737;50.932;6.780;2023-03-23T07:08:50;15.50;92.20
9984;DHT22;16737;50.932;6.780;2023-03-23T07:11:17;15.50;92.50
9984;DHT22;16737;50.932;6.780;2023-03-23T07:13:44;15.60;92.20
9984;DHT22;16737;50.932;6.780;2023-03-23T07:16:13;15.60;92.20
9984;DHT22;16737;50.932;6.780;2023-03-23T07:18:40;15.60;92.20
9984;DHT22;16737;50.932;6.780;2023-03-23T07:21:07;15.60;92.20
9984;DHT22;16737;50.932;6.780;2023-03-23T07:23:34;15.60;92.20
9984;DHT22;16737;50.932;6.780;2023-03-23T07:26:01;15.60;92.20
9984;DHT22;16737;50.932;6.780;2023-03-23T07:28:29;15.70;92.20
9984;DHT22;16737;50.932;6.780;2023-03-23T07:30:56;15.70;92.20
9984;DHT22;16737;50.932;6.780;2023-03-23T07:33:27;15.70;92.20
9984;DHT22;16737;50.932;6.780;2023-03-23T07:35:54;15.70;92.20
9984;DHT22;16737;50.932;6.780;2023-03-23T07:38:21;15.70;92.20
9984;DHT22;16737;50.932;6.780;2023-03-23T07:40:50;15.70;92.20
9984;DHT22;16737;50.932;6.780;2023-03-23T07:43:20;15.70;92.20
9984;DHT22;16737;50.932;6.780;2023-03-23T07:45:48;15.80;92.10
9984;DHT22;16737;50.932;6.780;2023-03-23T07:48:15;15.80;92.10
9984;DHT22;16737;50.932;6.780;2023-03-23T07:50:44;15.80;92.10
9984;DHT22;16737;50.932;6.780;2023-03-23T07:53:14;15.80;92.00
9984;DHT22;16737;50.932;6.780;2023-03-23T07:55:41;15.90;92.00
9984;DHT22;16737;50.932;6.780;2023-03-23T07:58:08;15.90;92.00
9984;DHT22;16737;50.932;6.780;2023-03-23T08:00:35;15.90;92.00
9984;DHT22;16737;50.932;6.780;2023-03-23T08:03:05;16.00;91.90
9984;DHT22;16737;50.932;6.780;2023-03-23T08:05:32;16.00;91.80
9984;DHT22;16737;50.932;6.780;2023-03-23T08:08:01;16.00;91.80
9984;DHT22;16737;50.932;6.780;2023-03-23T08:10:28;16.00;91.80
9984;DHT22;16737;50.932;6.780;2023-03-23T08:12:56;16.00;91.80
9984;DHT22;16737;50.932;6.780;2023-03-23T08:15:26;16.10;92.10
9984;DHT22;16737;50.932;6.780;2023-03-23T08:17:54;16.10;91.80
9984;DHT22;16737;50.932;6.780;2023-03-23T08:20:22;16.20;91.80
9984;DHT22;16737;50.932;6.780;2023-03-23T08:22:52;16.20;91.70
9984;DHT22;16737;50.932;6.780;2023-03-23T08:25:22;16.20;91.60
9984;DHT22;16737;50.932;6.780;2023-03-23T08:27:51;16.20;91.50
9984;DHT22;16737;50.932;6.780;2023-03-23T08:30:20;16.30;91.70
9984;DHT22;16737;50.932;6.780;2023-03-23T08:32:49;16.30;91.70
9984;DHT22;16737;50.932;6.780;2023-03-23T08:35:16;16.30;91.60
9984;DHT22;16737;50.932;6.780;2023-03-23T08:37:45;16.40;91.60
9984;DHT22;16737;50.932;6.780;2023-03-23T08:40:18;16.40;91.60
9984;DHT22;16737;50.932;6.780;2023-03-23T08:42:49;16.50;91.60
9984;DHT22;16737;50.932;6.780;2023-03-23T08:45:19;16.50;91.50
9984;DHT22;16737;50.932;6.780;2023-03-23T08:47:48;16.50;91.50
9984;DHT22;16737;50.932;6.780;2023-03-23T08:50:19;16.50;91.40
9984;DHT22;16737;50.932;6.780;2023-03-23T08:52:48;16.60;91.30
9984;DHT22;16737;50.932;6.780;2023-03-23T08:55:16;16.60;91.30
9984;DHT22;16737;50.932;6.780;2023-03-23T08:57:44;16.70;91.30
9984;DHT22;16737;50.932;6.780;2023-03-23T09:00:15;16.70;91.20
9984;DHT22;16737;50.932;6.780;2023-03-23T09:02:46;16.70;91.00
9984;DHT22;16737;50.932;6.780;2023-03-23T09:05:15;16.70;91.00
9984;DHT22;16737;50.932;6.780;2023-03-23T09:07:45;16.80;91.10
9984;DHT22;16737;50.932;6.780;2023-03-23T09:10:17;16.80;91.00
9984;DHT22;16737;50.932;6.780;2023-03-23T09:12:46;16.80;91.00
9984;DHT22;16737;50.932;6.780;2023-03-23T09:15:16;16.90;91.10
9984;DHT22;16737;50.932;6.780;2023-03-23T09:17:47;16.90;91.10
9984;DHT22;16737;50.932;6.780;2023-03-23T09:20:17;16.90;91.00
9984;DHT22;16737;50.932;6.780;2023-03-23T09:22:47;17.00;91.10
9984;DHT22;16737;50.932;6.780;2023-03-23T09:25:18;17.00;91.10
9984;DHT22;16737;50.932;6.780;2023-03-23T09:27:49;17.00;91.00
9984;DHT22;16737;50.932;6.780;2023-03-23T09:30:24;17.10;90.90
9984;DHT22;16737;50.932;6.780;2023-03-23T09:32:53;17.10;90.70
9984;DHT22;16737;50.932;6.780;2023-03-23T09:35:21;17.10;90.70
9984;DHT22;16737;50.932;6.780;2023-03-23T09:37:50;17.10;90.60
9984;DHT22;16737;50.932;6.780;2023-03-23T09:40:20;17.10;90.40
9984;DHT22;16737;50.932;6.780;2023-03-23T09:43:08;17.10;90.40
9984;DHT22;16737;50.932;6.780;2023-03-23T09:45:54;17.20;90.10
9984;DHT22;16737;50.932;6.780;2023-03-23T09:48:33;17.20;90.20
9984;DHT22;16737;50.932;6.780;2023-03-23T09:51:12;17.20;90.10
9984;DHT22;16737;50.932;6.780;2023-03-23T09:53:50;17.20;90.00
9984;DHT22;16737;50.932;6.780;2023-03-23T09:56:20;17.20;90.00
9984;DHT22;16737;50.932;6.780;2023-03-23T09:58:55;17.20;90.00
9984;DHT22;16737;50.932;6.780;2023-03-23T10:01:28;17.10;89.20
9984;DHT22;16737;50.932;6.780;2023-03-23T10:04:05;17.10;89.60
9984;DHT22;16737;50.932;6.780;2023-03-23T10:06:37;17.10;89.60
9984;DHT22;16737;50.932;6.780;2023-03-23T10:09:05;17.10;90.00
9984;DHT22;16737;50.932;6.780;2023-03-23T10:11:40;17.10;89.90
9984;DHT22;16737;50.932;6.780;2023-03-23T10:14:28;17.10;89.90
9984;DHT22;16737;50.932;6.780;2023-03-23T10:17:14;17.10;90.00
9984;DHT22;16737;50.932;6.780;2023-03-23T10:19:47;17.10;90.00
9984;DHT22;16737;50.932;6.780;2023-03-23T10:22:23;17.10;90.10
9984;DHT22;16737;50.932;6.780;2023-03-23T10:25:02;17.10;90.10
9984;DHT22;16737;50.932;6.780;2023-03-23T10:27:40;17.10;90.10
9984;DHT22;16737;50.932;6.780;2023-03-23T10:30:17;17.10;90.20
9984;DHT22;16737;50.932;6.780;2023-03-23T10:32:52;17.00;90.20
9984;DHT22;16737;50.932;6.780;2023-03-23T10:35:26;17.00;90.30
9984;DHT22;16737;50.932;6.780;2023-03-23T10:38:00;17.00;90.30
9984;DHT22;16737;50.932;6.780;2023-03-23T10:40:30;17.00;90.40
9984;DHT22;16737;50.932;6.780;2023-03-23T10:42:59;17.00;90.40
9984;DHT22;16737;50.932;6.780;2023-03-23T10:45:27;17.00;90.50
9984;DHT22;16737;50.932;6.780;2023-03-23T10:48:06;17.00;90.50
9984;DHT22;16737;50.932;6.780;2023-03-23T10:50:41;17.00;90.60
9984;DHT22;16737;50.932;6.780;2023-03-23T10:53:15;17.00;90.60
9984;DHT22;16737;50.932;6.780;2023-03-23T10:55:45;17.10;90.70
9984;DHT22;16737;50.932;6.780;2023-03-23T10:58:24;17.10;90.80
9984;DHT22;16737;50.932;6.780;2023-03-23T11:00:54;17.10;90.80
9984;DHT22;16737;50.932;6.780;2023-03-23T11:03:27;17.10;90.90
9984;DHT22;16737;50.932;6.780;2023-03-23T11:06:03;17.20;91.00
9984;DHT22;16737;50.932;6.780;2023-03-23T11:08:35;17.20;91.00
9984;DHT22;16737;50.932;6.780;2023-03-23T11:11:10;17.20;91.00
9984;DHT22;16737;50.932;6.780;2023-03-23T11:13:44;17.30;91.00
9984;DHT22;16737;50.932;6.780;2023-03-23T11:16:23;17.30;91.10
9984;DHT22;16737;50.932;6.780;2023-03-23T11:18:52;17.40;91.20
9984;DHT22;16737;50.932;6.780;2023-03-23T11:21:21;17.50;91.20
9984;DHT22;16737;50.932;6.780;2023-03-23T11:23:52;17.50;91.10
9984;DHT22;16737;50.932;6.780;2023-03-23T11:26:24;17.60;91.10
9984;DHT22;16737;50.932;6.780;2023-03-23T11:28:55;17.60;91.00
9984;DHT22;16737;50.932;6.780;2023-03-23T11:31:27;17.70;91.00
9984;DHT22;16737;50.932;6.780;2023-03-23T11:33:58;17.70;90.80
9984;DHT22;16737;50.932;6.780;2023-03-23T11:36:33;17.80;90.80
9984;DHT22;16737;50.932;6.780;2023-03-23T11:39:16;17.80;90.60
9984;DHT22;16737;50.932;6.780;2023-03-23T11:41:46;17.80;90.60
9984;DHT22;16737;50.932;6.780;2023-03-23T11:44:14;17.90;90.60
9984;DHT22;16737;50.932;6.780;2023-03-23T11:46:49;17.90;90.50
9984;DHT22;16737;50.932;6.780;2023-03-23T11:49:41;17.90;90.40
9984;DHT22;16737;50.932;6.780;2023-03-23T11:52:21;17.90;90.40
9984;DHT22;16737;50.932;6.780;2023-03-23T11:54:56;17.90;90.50
9984;DHT22;16737;50.932;6.780;2023-03-23T11:57:29;17.90;90.50
9984;DHT22;16737;50.932;6.780;2023-03-23T11:59:56;17.90;90.60
9984;DHT22;16737;50.932;6.780;2023-03-23T12:02:39;17.90;90.50
9984;DHT22;16737;50.932;6.780;2023-03-23T12:05:32;18.00;90.50
9984;DHT22;16737;50.932;6.780;2023-03-23T12:08:19;18.00;90.50
9984;DHT22;16737;50.932;6.780;2023-03-23T12:10:59;18.10;90.50
9984;DHT22;16737;50.932;6.780;2023-03-23T12:13:45;18.10;90.50
9984;DHT22;16737;50.932;6.780;2023-03-23T12:16:30;18.10;90.50
9984;DHT22;16737;50.932;6.780;2023-03-23T12:19:11;18.20;90.80
9984;DHT22;16737;50.932;6.780;2023-03-23T12:21:55;18.30;90.80
9984;DHT22;16737;50.932;6.780;2023-03-23T12:24:50;18.40;90.70
9984;DHT22;16737;50.932;6.780;2023-03-23T12:27:30;18.50;90.70
9984;DHT22;16737;50.932;6.780;2023-03-23T12:30:11;18.60;90.70
9984;DHT22;16737;50.932;6.780;2023-03-23T12:32:58;18.70;90.60
9984;DHT22;16737;50.932;6.780;2023-03-23T12:35:45;18.80;90.50
9984;DHT22;16737;50.932;6.780;2023-03-23T12:38:32;18.80;90.50
9984;DHT22;16737;50.932;6.780;2023-03-23T12:41:16;18.90;90.30
9984;DHT22;16737;50.932;6.780;2023-03-23T12:43:50;18.90;90.40
9984;DHT22;16737;50.932;6.780;2023-03-23T12:46:38;18.90;90.10
9984;DHT22;16737;50.932;6.780;2023-03-23T12:49:15;18.90;89.80
9984;DHT22;16737;50.932;6.780;2023-03-23T12:51:57;18.90;90.00
9984;DHT22;16737;50.932;6.780;2023-03-23T12:54:32;18.80;89.40
9984;DHT22;16737;50.932;6.780;2023-03-23T12:57:05;18.80;89.40
9984;DHT22;16737;50.932;6.780;2023-03-23T12:59:43;18.80;89.60
9984;DHT22;16737;50.932;6.780;2023-03-23T13:02:20;18.70;89.20
9984;DHT22;16737;50.932;6.780;2023-03-23T13:04:54;18.70;88.70
9984;DHT22;16737;50.932;6.780;2023-03-23T13:07:32;18.60;89.00
9984;DHT22;16737;50.932;6.780;2023-03-23T13:10:07;18.60;88.90
9984;DHT22;16737;50.932;6.780;2023-03-23T13:12:41;18.50;88.80
9984;DHT22;16737;50.932;6.780;2023-03-23T13:15:23;18.50;89.20
9984;DHT22;16737;50.932;6.780;2023-03-23T13:18:04;18.50;89.00
9984;DHT22;16737;50.932;6.780;2023-03-23T13:20:57;18.40;89.20
9984;DHT22;16737;50.932;6.780;2023-03-23T13:23:31;18.30;89.40
9984;DHT22;16737;50.932;6.780;2023-03-23T13:26:07;18.30;89.90
9984;DHT22;16737;50.932;6.780;2023-03-23T13:28:48;18.20;90.00
9984;DHT22;16737;50.932;6.780;2023-03-23T13:31:24;18.20;90.00
9984;DHT22;16737;50.932;6.780;2023-03-23T13:33:59;18.10;90.00
9984;DHT22;16737;50.932;6.780;2023-03-23T13:36:31;18.00;89.90
9984;DHT22;16737;50.932;6.780;2023-03-23T13:39:03;18.00;89.90
9984;DHT22;16737;50.932;6.780;2023-03-23T13:41:34;18.00;89.90
9984;DHT22;16737;50.932;6.780;2023-03-23T13:44:24;17.80;89.70
9984;DHT22;16737;50.932;6.780;2023-03-23T13:47:07;17.80;89.80
9984;DHT22;16737;50.932;6.780;2023-03-23T13:49:49;17.80;90.10
9984;DHT22;16737;50.932;6.780;2023-03-23T13:52:23;17.80;90.20
9984;DHT22;16737;50.932;6.780;2023-03-23T13:55:07;17.80;90.40
9984;DHT22;16737;50.932;6.780;2023-03-23T13:57:52;17.80;90.40
9984;DHT22;16737;50.932;6.780;2023-03-23T14:00:45;17.90;90.40
9984;DHT22;16737;50.932;6.780;2023-03-23T14:03:17;17.90;90.40
9984;DHT22;16737;50.932;6.780;2023-03-23T14:05:51;17.90;90.30
9984;DHT22;16737;50.932;6.780;2023-03-23T14:08:38;17.90;90.30
9984;DHT22;16737;50.932;6.780;2023-03-23T14:11:13;17.90;90.20
9984;DHT22;16737;50.932;6.780;2023-03-23T14:13:47;18.00;90.30
9984;DHT22;16737;50.932;6.780;2023-03-23T14:16:24;18.00;90.40
9984;DHT22;16737;50.932;6.780;2023-03-23T14:18:58;18.00;90.40
9984;DHT22;16737;50.932;6.780;2023-03-23T14:21:36;18.00;90.40
9984;DHT22;16737;50.932;6.780;2023-03-23T14:24:10;18.10;90.30
9984;DHT22;16737;50.932;6.780;2023-03-23T14:26:39;18.10;90.40
9984;DHT22;16737;50.932;6.780;2023-03-23T14:29:11;18.10;90.40
9984;DHT22;16737;50.932;6.780;2023-03-23T14:31:39;18.20;90.40
9984;DHT22;16737;50.932;6.780;2023-03-23T14:34:12;18.20;90.30
9984;DHT22;16737;50.932;6.780;2023-03-23T14:36:43;18.20;90.20
9984;DHT22;16737;50.932;6.780;2023-03-23T14:39:17;18.20;90.20
9984;DHT22;16737;50.932;6.780;2023-03-23T14:41:48;18.20;90.00
9984;DHT22;16737;50.932;6.780;2023-03-23T14:44:18;18.20;90.00
9984;DHT22;16737;50.932;6.780;2023-03-23T14:46:49;18.20;90.00
9984;DHT22;16737;50.932;6.780;2023-03-23T14:49:19;18.20;90.00
9984;DHT22;16737;50.932;6.780;2023-03-23T14:52:03;18.20;90.00
9984;DHT22;16737;50.932;6.780;2023-03-23T14:54:36;18.20;89.90
9984;DHT22;16737;50.932;6.780;2023-03-23T14:57:12;18.10;89.90
9984;DHT22;16737;50.932;6.780;2023-03-23T14:59:43;18.10;89.70
9984;DHT22;16737;50.932;6.780;2023-03-23T15:02:14;18.10;89.80
9984;DHT22;16737;50.932;6.780;2023-03-23T15:04:45;18.10;89.90
9984;DHT22;16737;50.932;6.780;2023-03-23T15:07:16;18.10;90.00
9984;DHT22;16737;50.932;6.780;2023-03-23T15:09:45;18.10;89.80
9984;DHT22;16737;50.932;6.780;2023-03-23T15:12:20;18.10;89.80
9984;DHT22;16737;50.932;6.780;2023-03-23T15:14:54;18.10;89.80
9984;DHT22;16737;50.932;6.780;2023-03-23T15:17:24;18.10;89.70
9984;DHT22;16737;50.932;6.780;2023-03-23T15:19:54;18.10;89.80
9984;DHT22;16737;50.932;6.780;2023-03-23T15:22:25;18.20;90.00
9984;DHT22;16737;50.932;6.780;2023-03-23T15:25:03;18.20;89.70
9984;DHT22;16737;50.932;6.780;2023-03-23T15:27:41;18.30;89.50
9984;DHT22;16737;50.932;6.780;2023-03-23T15:30:18;18.30;89.40
9984;DHT22;16737;50.932;6.780;2023-03-23T15:33:01;18.40;89.30
9984;DHT22;16737;50.932;6.780;2023-03-23T15:35:34;18.50;89.10
9984;DHT22;16737;50.932;6.780;2023-03-23T15:38:04;18.50;88.70
9984;DHT22;16737;50.932;6.780;2023-03-23T15:40:34;18.50;88.60
9984;DHT22;16737;50.932;6.780;2023-03-23T15:43:08;18.50;88.40
9984;DHT22;16737;50.932;6.780;2023-03-23T15:45:53;18.50;87.60
9984;DHT22;16737;50.932;6.780;2023-03-23T15:48:26;18.60;86.90
9984;DHT22;16737;50.932;6.780;2023-03-23T15:50:54;18.50;87.80
9984;DHT22;16737;50.932;6.780;2023-03-23T15:53:29;18.50;87.70
9984;DHT22;16737;50.932;6.780;2023-03-23T15:55:59;18.50;87.00
9984;DHT22;16737;50.932;6.780;2023-03-23T15:58:28;18.50;87.60
9984;DHT22;16737;50.932;6.780;2023-03-23T16:00:57;18.50;87.50
9984;DHT22;16737;50.932;6.780;2023-03-23T16:03:35;18.50;87.40
9984;DHT22;16737;50.932;6.780;2023-03-23T16:06:05;18.50;86.90
9984;DHT22;16737;50.932;6.780;2023-03-23T16:08:36;18.50;87.00
9984;DHT22;16737;50.932;6.780;2023-03-23T16:11:05;18.50;87.00
9984;DHT22;16737;50.932;6.780;2023-03-23T16:13:32;18.50;86.90
9984;DHT22;16737;50.932;6.780;2023-03-23T16:16:01;18.50;86.80
9984;DHT22;16737;50.932;6.780;2023-03-23T16:18:29;18.40;86.50
9984;DHT22;16737;50.932;6.780;2023-03-23T16:20:57;18.40;86.30